sensor_id;sensor_type;location;lat;lon;timestamp;P1;durP1;ratioP1;P2;durP2;ratioP2
75667;SDS011;64266;48.798;44.756;2023-02-25T00:04:28;18.50;;;7.32;;
75667;SDS011;64266;48.798;44.756;2023-02-25T00:09:31;18.17;;;8.38;;
75667;SDS011;64266;48.798;44.756;2023-02-25T00:14:35;21.05;;;7.47;;
75667;SDS011;64266;48.798;44.756;2023-02-25T00:19:38;18.02;;;7.22;;
75667;SDS011;64266;48.798;44.756;2023-02-25T00:24:40;14.35;;;6.55;;
75667;SDS011;64266;48.798;44.756;2023-02-25T00:29:44;18.38;;;7.85;;
75667;SDS011;64266;48.798;44.756;2023-02-25T00:34:46;19.73;;;8.10;;
75667;SDS011;64266;48.798;44.756;2023-02-25T00:39:50;18.35;;;7.03;;
75667;SDS011;64266;48.798;44.756;2023-02-25T00:44:53;20.55;;;8.43;;
75667;SDS011;64266;48.798;44.756;2023-02-25T00:49:57;18.73;;;8.00;;
75667;SDS011;64266;48.798;44.756;2023-02-25T00:55:00;13.00;;;5.25;;
75667;SDS011;64266;48.798;44.756;2023-02-25T01:00:05;15.27;;;7.35;;
75667;SDS011;64266;48.798;44.756;2023-02-25T01:05:12;22.20;;;8.95;;
75667;SDS011;64266;48.798;44.756;2023-02-25T01:10:16;16.13;;;6.80;;
75667;SDS011;64266;48.798;44.756;2023-02-25T01:15:19;20.08;;;8.15;;
75667;SDS011;64266;48.798;44.756;2023-02-25T01:20:22;17.17;;;7.47;;
75667;SDS011;64266;48.798;44.756;2023-02-25T01:25:28;14.55;;;7.65;;
75667;SDS011;64266;48.798;44.756;2023-02-25T01:30:34;19.70;;;7.25;;
75667;SDS011;64266;48.798;44.756;2023-02-25T01:35:44;18.25;;;8.63;;
75667;SDS011;64266;48.798;44.756;2023-02-25T01:40:55;19.80;;;7.43;;
75667;SDS011;64266;48.798;44.756;2023-02-25T01:46:00;16.85;;;8.00;;
75667;SDS011;64266;48.798;44.756;2023-02-25T01:51:07;15.93;;;7.43;;
75667;SDS011;64266;48.798;44.756;2023-02-25T01:56:15;16.92;;;6.75;;
75667;SDS011;64266;48.798;44.756;2023-02-25T02:01:23;17.08;;;7.47;;
75667;SDS011;64266;48.798;44.756;2023-02-25T02:06:35;16.67;;;6.65;;
75667;SDS011;64266;48.798;44.756;2023-02-25T02:11:42;20.33;;;7.88;;
75667;SDS011;64266;48.798;44.756;2023-02-25T02:33:19;21.15;;;8.25;;
75667;SDS011;64266;48.798;44.756;2023-02-25T02:43:40;19.63;;;7.97;;
75667;SDS011;64266;48.798;44.756;2023-02-25T02:49:25;22.42;;;8.38;;
75667;SDS011;64266;48.798;44.756;2023-02-25T02:54:29;20.42;;;7.57;;
75667;SDS011;64266;48.798;44.756;2023-02-25T02:59:48;17.08;;;6.45;;
75667;SDS011;64266;48.798;44.756;2023-02-25T03:04:58;16.95;;;7.35;;
75667;SDS011;64266;48.798;44.756;2023-02-25T03:10:06;19.50;;;8.25;;
75667;SDS011;64266;48.798;44.756;2023-02-25T03:15:14;18.67;;;7.78;;
75667;SDS011;64266;48.798;44.756;2023-02-25T03:20:19;16.65;;;7.93;;
75667;SDS011;64266;48.798;44.756;2023-02-25T03:25:35;15.80;;;7.10;;
75667;SDS011;64266;48.798;44.756;2023-02-25T03:31:16;16.38;;;6.57;;
75667;SDS011;64266;48.798;44.756;2023-02-25T03:36:25;17.48;;;6.80;;
75667;SDS011;64266;48.798;44.756;2023-02-25T03:41:35;15.75;;;6.15;;
75667;SDS011;64266;48.798;44.756;2023-02-25T03:46:43;19.10;;;7.35;;
75667;SDS011;64266;48.798;44.756;2023-02-25T03:51:52;15.82;;;7.32;;
75667;SDS011;64266;48.798;44.756;2023-02-25T03:57:01;16.75;;;6.93;;
75667;SDS011;64266;48.798;44.756;2023-02-25T04:02:04;15.65;;;6.60;;
75667;SDS011;64266;48.798;44.756;2023-02-25T04:07:10;20.33;;;7.50;;
75667;SDS011;64266;48.798;44.756;2023-02-25T04:12:14;17.02;;;7.00;;
75667;SDS011;64266;48.798;44.756;2023-02-25T04:17:17;16.85;;;7.15;;
75667;SDS011;64266;48.798;44.756;2023-02-25T04:22:24;18.40;;;6.18;;
75667;SDS011;64266;48.798;44.756;2023-02-25T04:27:27;19.17;;;7.25;;
75667;SDS011;64266;48.798;44.756;2023-02-25T04:32:32;19.17;;;8.32;;
75667;SDS011;64266;48.798;44.756;2023-02-25T04:37:35;17.17;;;7.75;;
75667;SDS011;64266;48.798;44.756;2023-02-25T04:42:37;18.02;;;7.32;;
75667;SDS011;64266;48.798;44.756;2023-02-25T04:47:42;17.65;;;7.07;;
75667;SDS011;64266;48.798;44.756;2023-02-25T04:52:46;16.88;;;7.50;;
75667;SDS011;64266;48.798;44.756;2023-02-25T04:57:49;17.85;;;8.60;;
75667;SDS011;64266;48.798;44.756;2023-02-25T05:02:53;18.02;;;7.18;;
75667;SDS011;64266;48.798;44.756;2023-02-25T05:07:56;16.75;;;6.07;;
75667;SDS011;64266;48.798;44.756;2023-02-25T05:13:04;16.92;;;6.05;;
75667;SDS011;64266;48.798;44.756;2023-02-25T05:18:10;16.27;;;6.05;;
75667;SDS011;64266;48.798;44.756;2023-02-25T05:23:12;17.23;;;7.82;;
75667;SDS011;64266;48.798;44.756;2023-02-25T05:28:16;16.15;;;6.97;;
75667;SDS011;64266;48.798;44.756;2023-02-25T05:33:21;15.52;;;7.18;;
75667;SDS011;64266;48.798;44.756;2023-02-25T05:38:25;14.90;;;6.65;;
75667;SDS011;64266;48.798;44.756;2023-02-25T05:43:29;16.38;;;6.45;;
75667;SDS011;64266;48.798;44.756;2023-02-25T05:48:32;13.63;;;6.25;;
75667;SDS011;64266;48.798;44.756;2023-02-25T05:53:34;19.77;;;7.57;;
75667;SDS011;64266;48.798;44.756;2023-02-25T05:58:40;17.55;;;8.02;;
75667;SDS011;64266;48.798;44.756;2023-02-25T06:03:44;17.88;;;8.05;;
75667;SDS011;64266;48.798;44.756;2023-02-25T06:08:48;20.67;;;8.45;;
75667;SDS011;64266;48.798;44.756;2023-02-25T06:13:52;20.58;;;9.15;;
75667;SDS011;64266;48.798;44.756;2023-02-25T06:18:57;22.73;;;8.98;;
75667;SDS011;64266;48.798;44.756;2023-02-25T06:24:02;19.85;;;8.45;;
75667;SDS011;64266;48.798;44.756;2023-02-25T06:29:06;26.73;;;9.95;;
75667;SDS011;64266;48.798;44.756;2023-02-25T06:34:10;20.67;;;8.80;;
75667;SDS011;64266;48.798;44.756;2023-02-25T06:39:14;22.10;;;9.50;;
75667;SDS011;64266;48.798;44.756;2023-02-25T06:44:17;20.58;;;9.27;;
75667;SDS011;64266;48.798;44.756;2023-02-25T06:49:20;22.58;;;9.55;;
75667;SDS011;64266;48.798;44.756;2023-02-25T06:54:24;21.50;;;9.95;;
75667;SDS011;64266;48.798;44.756;2023-02-25T06:59:28;24.52;;;10.23;;
75667;SDS011;64266;48.798;44.756;2023-02-25T07:04:32;22.67;;;8.77;;
75667;SDS011;64266;48.798;44.756;2023-02-25T07:09:35;26.27;;;9.02;;
75667;SDS011;64266;48.798;44.756;2023-02-25T07:14:37;26.85;;;10.65;;
75667;SDS011;64266;48.798;44.756;2023-02-25T07:19:40;25.42;;;11.20;;
75667;SDS011;64266;48.798;44.756;2023-02-25T07:24:44;24.70;;;10.40;;
75667;SDS011;64266;48.798;44.756;2023-02-25T07:29:47;20.90;;;8.15;;
75667;SDS011;64266;48.798;44.756;2023-02-25T07:34:50;25.13;;;10.32;;
75667;SDS011;64266;48.798;44.756;2023-02-25T07:39:52;23.80;;;11.20;;
75667;SDS011;64266;48.798;44.756;2023-02-25T07:44:56;21.48;;;10.18;;
75667;SDS011;64266;48.798;44.756;2023-02-25T07:50:02;18.58;;;8.68;;
75667;SDS011;64266;48.798;44.756;2023-02-25T07:55:08;19.75;;;8.60;;
75667;SDS011;64266;48.798;44.756;2023-02-25T08:00:11;20.33;;;8.75;;
75667;SDS011;64266;48.798;44.756;2023-02-25T08:05:14;15.50;;;7.20;;
75667;SDS011;64266;48.798;44.756;2023-02-25T08:10:22;18.92;;;7.78;;
75667;SDS011;64266;48.798;44.756;2023-02-25T08:15:26;15.70;;;6.32;;
75667;SDS011;64266;48.798;44.756;2023-02-25T08:20:29;16.48;;;7.15;;
75667;SDS011;64266;48.798;44.756;2023-02-25T08:25:32;18.55;;;7.88;;
75667;SDS011;64266;48.798;44.756;2023-02-25T08:30:35;16.63;;;7.70;;
75667;SDS011;64266;48.798;44.756;2023-02-25T08:35:39;16.15;;;8.02;;
75667;SDS011;64266;48.798;44.756;2023-02-25T08:40:43;19.80;;;7.47;;
75667;SDS011;64266;48.798;44.756;2023-02-25T08:45:46;15.68;;;7.88;;
75667;SDS011;64266;48.798;44.756;2023-02-25T08:50:51;17.42;;;7.53;;
75667;SDS011;64266;48.798;44.756;2023-02-25T08:55:54;18.50;;;8.25;;
75667;SDS011;64266;48.798;44.756;2023-02-25T09:00:57;21.63;;;8.18;;
75667;SDS011;64266;48.798;44.756;2023-02-25T09:06:02;15.98;;;7.20;;
75667;SDS011;64266;48.798;44.756;2023-02-25T09:11:05;16.23;;;7.15;;
75667;SDS011;64266;48.798;44.756;2023-02-25T09:16:07;15.70;;;5.97;;
75667;SDS011;64266;48.798;44.756;2023-02-25T09:21:11;13.38;;;6.57;;
75667;SDS011;64266;48.798;44.756;2023-02-25T09:26:15;14.48;;;6.60;;
75667;SDS011;64266;48.798;44.756;2023-02-25T09:31:19;12.60;;;6.13;;
75667;SDS011;64266;48.798;44.756;2023-02-25T09:36:21;15.02;;;6.78;;
75667;SDS011;64266;48.798;44.756;2023-02-25T09:41:27;13.02;;;5.93;;
75667;SDS011;64266;48.798;44.756;2023-02-25T09:46:48;16.40;;;7.25;;
75667;SDS011;64266;48.798;44.756;2023-02-25T09:52:00;15.88;;;6.63;;
75667;SDS011;64266;48.798;44.756;2023-02-25T09:57:17;13.85;;;6.45;;
75667;SDS011;64266;48.798;44.756;2023-02-25T10:02:26;13.60;;;6.65;;
75667;SDS011;64266;48.798;44.756;2023-02-25T10:07:34;11.63;;;5.65;;
75667;SDS011;64266;48.798;44.756;2023-02-25T10:13:19;14.05;;;5.97;;
75667;SDS011;64266;48.798;44.756;2023-02-25T10:29:39;12.35;;;6.18;;
75667;SDS011;64266;48.798;44.756;2023-02-25T10:35:36;19.77;;;5.82;;
75667;SDS011;64266;48.798;44.756;2023-02-25T10:40:21;11.90;;;5.55;;
75667;SDS011;64266;48.798;44.756;2023-02-25T10:45:27;12.20;;;5.97;;
75667;SDS011;64266;48.798;44.756;2023-02-25T10:50:31;11.75;;;6.03;;
75667;SDS011;64266;48.798;44.756;2023-02-25T10:55:50;10.32;;;5.40;;
75667;SDS011;64266;48.798;44.756;2023-02-25T11:01:00;13.55;;;6.00;;
75667;SDS011;64266;48.798;44.756;2023-02-25T11:06:25;12.48;;;5.25;;
75667;SDS011;64266;48.798;44.756;2023-02-25T11:11:35;9.48;;;4.25;;
75667;SDS011;64266;48.798;44.756;2023-02-25T11:16:42;13.30;;;5.43;;
75667;SDS011;64266;48.798;44.756;2023-02-25T11:26:50;11.88;;;5.38;;
75667;SDS011;64266;48.798;44.756;2023-02-25T11:31:55;11.68;;;5.22;;
75667;SDS011;64266;48.798;44.756;2023-02-25T11:42:39;10.35;;;5.85;;
75667;SDS011;64266;48.798;44.756;2023-02-25T11:47:42;13.02;;;5.28;;
75667;SDS011;64266;48.798;44.756;2023-02-25T12:20:45;8.95;;;4.00;;
75667;SDS011;64266;48.798;44.756;2023-02-25T12:26:21;8.55;;;4.20;;
75667;SDS011;64266;48.798;44.756;2023-02-25T13:26:09;11.60;;;5.53;;
75667;SDS011;64266;48.798;44.756;2023-02-25T13:53:29;11.93;;;5.30;;
75667;SDS011;64266;48.798;44.756;2023-02-25T14:04:28;9.50;;;4.85;;
75667;SDS011;64266;48.798;44.756;2023-02-25T14:15:27;12.85;;;5.00;;
75667;SDS011;64266;48.798;44.756;2023-02-25T14:21:02;9.88;;;5.00;;
75667;SDS011;64266;48.798;44.756;2023-02-25T14:26:25;9.75;;;4.65;;
75667;SDS011;64266;48.798;44.756;2023-02-25T14:36:48;13.18;;;4.93;;
75667;SDS011;64266;48.798;44.756;2023-02-25T14:47:28;10.18;;;4.38;;
75667;SDS011;64266;48.798;44.756;2023-02-25T15:14:17;9.77;;;3.83;;
75667;SDS011;64266;48.798;44.756;2023-02-25T15:30:23;11.25;;;4.45;;
75667;SDS011;64266;48.798;44.756;2023-02-25T15:40:45;10.70;;;4.45;;
75667;SDS011;64266;48.798;44.756;2023-02-25T15:45:51;14.63;;;4.72;;
75667;SDS011;64266;48.798;44.756;2023-02-25T15:50:56;10.05;;;3.88;;
75667;SDS011;64266;48.798;44.756;2023-02-25T16:11:52;11.05;;;3.63;;
75667;SDS011;64266;48.798;44.756;2023-02-25T16:17:16;9.27;;;3.83;;
75667;SDS011;64266;48.798;44.756;2023-02-25T16:32:51;12.02;;;3.85;;
75667;SDS011;64266;48.798;44.756;2023-02-25T16:43:14;10.85;;;4.20;;
75667;SDS011;64266;48.798;44.756;2023-02-25T16:48:24;10.38;;;3.47;;
75667;SDS011;64266;48.798;44.756;2023-02-25T16:53:32;9.93;;;3.95;;
75667;SDS011;64266;48.798;44.756;2023-02-25T16:58:35;10.70;;;3.95;;
75667;SDS011;64266;48.798;44.756;2023-02-25T17:03:43;12.27;;;3.90;;
75667;SDS011;64266;48.798;44.756;2023-02-25T17:08:48;9.70;;;3.88;;
75667;SDS011;64266;48.798;44.756;2023-02-25T17:13:52;14.32;;;4.15;;
75667;SDS011;64266;48.798;44.756;2023-02-25T17:19:06;15.05;;;4.70;;
75667;SDS011;64266;48.798;44.756;2023-02-25T17:24:12;11.52;;;3.17;;
75667;SDS011;64266;48.798;44.756;2023-02-25T17:29:18;8.88;;;3.80;;
75667;SDS011;64266;48.798;44.756;2023-02-25T17:39:31;8.80;;;2.78;;
75667;SDS011;64266;48.798;44.756;2023-02-25T17:49:37;14.52;;;3.65;;
75667;SDS011;64266;48.798;44.756;2023-02-25T17:54:42;8.40;;;3.35;;
75667;SDS011;64266;48.798;44.756;2023-02-25T18:00:31;10.80;;;3.80;;
75667;SDS011;64266;48.798;44.756;2023-02-25T18:05:20;13.00;;;3.90;;
75667;SDS011;64266;48.798;44.756;2023-02-25T18:15:30;7.53;;;3.38;;
75667;SDS011;64266;48.798;44.756;2023-02-25T18:20:35;9.15;;;3.20;;
75667;SDS011;64266;48.798;44.756;2023-02-25T18:31:22;10.27;;;3.95;;
75667;SDS011;64266;48.798;44.756;2023-02-25T18:36:25;12.30;;;4.25;;
75667;SDS011;64266;48.798;44.756;2023-02-25T18:41:29;11.40;;;3.53;;
75667;SDS011;64266;48.798;44.756;2023-02-25T18:46:31;10.73;;;3.72;;
75667;SDS011;64266;48.798;44.756;2023-02-25T18:51:34;16.13;;;4.10;;
75667;SDS011;64266;48.798;44.756;2023-02-25T18:56:36;12.07;;;3.55;;
75667;SDS011;64266;48.798;44.756;2023-02-25T19:01:39;13.07;;;4.15;;
75667;SDS011;64266;48.798;44.756;2023-02-25T19:06:42;12.13;;;4.35;;
75667;SDS011;64266;48.798;44.756;2023-02-25T19:11:45;11.32;;;4.30;;
75667;SDS011;64266;48.798;44.756;2023-02-25T19:16:47;11.85;;;4.65;;
75667;SDS011;64266;48.798;44.756;2023-02-25T19:21:50;15.15;;;4.93;;
75667;SDS011;64266;48.798;44.756;2023-02-25T19:26:52;11.32;;;4.35;;
75667;SDS011;64266;48.798;44.756;2023-02-25T19:31:55;16.15;;;6.00;;
75667;SDS011;64266;48.798;44.756;2023-02-25T19:36:58;16.48;;;5.43;;
75667;SDS011;64266;48.798;44.756;2023-02-25T19:42:01;18.70;;;6.43;;
75667;SDS011;64266;48.798;44.756;2023-02-25T19:47:04;15.48;;;4.95;;
75667;SDS011;64266;48.798;44.756;2023-02-25T19:52:07;17.15;;;5.30;;
75667;SDS011;64266;48.798;44.756;2023-02-25T19:57:10;16.40;;;5.40;;
75667;SDS011;64266;48.798;44.756;2023-02-25T20:02:12;16.38;;;5.40;;
75667;SDS011;64266;48.798;44.756;2023-02-25T20:07:21;19.65;;;5.45;;
75667;SDS011;64266;48.798;44.756;2023-02-25T20:12:23;20.98;;;6.22;;
75667;SDS011;64266;48.798;44.756;2023-02-25T20:17:26;16.02;;;5.97;;
75667;SDS011;64266;48.798;44.756;2023-02-25T20:22:28;23.45;;;6.55;;
75667;SDS011;64266;48.798;44.756;2023-02-25T20:27:31;16.90;;;5.55;;
75667;SDS011;64266;48.798;44.756;2023-02-25T20:32:36;19.88;;;6.70;;
75667;SDS011;64266;48.798;44.756;2023-02-25T20:37:39;25.70;;;7.07;;
75667;SDS011;64266;48.798;44.756;2023-02-25T20:42:49;15.63;;;6.05;;
75667;SDS011;64266;48.798;44.756;2023-02-25T20:47:52;17.85;;;6.78;;
75667;SDS011;64266;48.798;44.756;2023-02-25T20:52:54;28.90;;;6.45;;
75667;SDS011;64266;48.798;44.756;2023-02-25T20:57:58;21.58;;;6.78;;
75667;SDS011;64266;48.798;44.756;2023-02-25T21:03:01;20.88;;;6.55;;
75667;SDS011;64266;48.798;44.756;2023-02-25T21:08:04;22.60;;;6.03;;
75667;SDS011;64266;48.798;44.756;2023-02-25T21:13:07;17.67;;;6.80;;
75667;SDS011;64266;48.798;44.756;2023-02-25T21:18:10;21.77;;;6.43;;
75667;SDS011;64266;48.798;44.756;2023-02-25T21:23:13;18.35;;;6.28;;
75667;SDS011;64266;48.798;44.756;2023-02-25T21:28:18;19.42;;;6.53;;
75667;SDS011;64266;48.798;44.756;2023-02-25T21:33:21;23.42;;;6.78;;
75667;SDS011;64266;48.798;44.756;2023-02-25T21:38:25;19.15;;;7.13;;
75667;SDS011;64266;48.798;44.756;2023-02-25T21:43:31;16.58;;;6.13;;
75667;SDS011;64266;48.798;44.756;2023-02-25T21:48:35;19.38;;;7.20;;
75667;SDS011;64266;48.798;44.756;2023-02-25T21:53:39;17.83;;;5.70;;
75667;SDS011;64266;48.798;44.756;2023-02-25T21:58:41;21.20;;;6.68;;
75667;SDS011;64266;48.798;44.756;2023-02-25T22:03:45;22.27;;;6.65;;
75667;SDS011;64266;48.798;44.756;2023-02-25T22:08:49;14.25;;;5.32;;
75667;SDS011;64266;48.798;44.756;2023-02-25T22:13:52;21.55;;;6.20;;
75667;SDS011;64266;48.798;44.756;2023-02-25T22:18:56;20.88;;;5.20;;
75667;SDS011;64266;48.798;44.756;2023-02-25T22:24:02;20.17;;;6.65;;
75667;SDS011;64266;48.798;44.756;2023-02-25T22:29:09;21.42;;;6.35;;
75667;SDS011;64266;48.798;44.756;2023-02-25T22:34:13;16.00;;;5.03;;
75667;SDS011;64266;48.798;44.756;2023-02-25T22:39:15;22.73;;;5.75;;
75667;SDS011;64266;48.798;44.756;2023-02-25T22:44:19;17.35;;;6.03;;
75667;SDS011;64266;48.798;44.756;2023-02-25T22:49:22;17.98;;;4.95;;
75667;SDS011;64266;48.798;44.756;2023-02-25T22:54:28;20.00;;;5.60;;
75667;SDS011;64266;48.798;44.756;2023-02-25T22:59:31;17.10;;;5.43;;
75667;SDS011;64266;48.798;44.756;2023-02-25T23:04:36;18.75;;;5.53;;
75667;SDS011;64266;48.798;44.756;2023-02-25T23:09:39;20.10;;;6.00;;
75667;SDS011;64266;48.798;44.756;2023-02-25T23:14:44;17.58;;;5.13;;
75667;SDS011;64266;48.798;44.756;2023-02-25T23:19:46;18.70;;;5.65;;
75667;SDS011;64266;48.798;44.756;2023-02-25T23:24:49;16.10;;;5.40;;
75667;SDS011;64266;48.798;44.756;2023-02-25T23:29:52;25.35;;;5.80;;
75667;SDS011;64266;48.798;44.756;2023-02-25T23:34:55;14.65;;;5.47;;
75667;SDS011;64266;48.798;44.756;2023-02-25T23:39:57;20.10;;;6.78;;
75667;SDS011;64266;48.798;44.756;2023-02-25T23:45:00;16.65;;;5.32;;
75667;SDS011;64266;48.798;44.756;2023-02-25T23:50:04;16.50;;;5.80;;
75667;SDS011;64266;48.798;44.756;2023-02-25T23:55:08;19.42;;;6.03;;
